Time;durP1;ratioP1;P1;durP2;ratioP2;P2;SDS_P1;SDS_P2;PMS_P1;PMS_P2;Temp;Humidity;BMP_temperature;BMP_pressure;BME280_temperature;BME280_humidity;BME280_pressure;Samples;Min_cycle;Max_cycle;Signal;HPM_P1;HPM_P2
2022/08/31 00:04:09;;;;;;;38.28;35.58;;;;;;;23.68;100.00;100844.00;5018929;28;20421;-78
2022/08/31 00:06:37;;;;;;;37.97;34.95;;;;;;;23.58;100.00;100849.56;5015119;28;20049;-80
2022/08/31 00:09:06;;;;;;;33.90;31.45;;;;;;;23.25;100.00;100852.91;5011697;28;20061;-79
2022/08/31 00:11:34;;;;;;;39.35;36.63;;;;;;;23.79;100.00;100853.66;5019331;28;20433;-80
2022/08/31 00:14:06;;;;;;;38.80;35.95;;;;;;;23.65;100.00;100855.44;5007463;28;20111;-77
2022/08/31 00:16:35;;;;;;;41.05;37.97;;;;;;;23.70;100.00;100863.53;5009106;28;20054;-78
2022/08/31 00:19:02;;;;;;;41.60;38.80;;;;;;;23.71;100.00;100854.31;5023156;28;20038;-81
2022/08/31 00:21:31;;;;;;;38.67;35.97;;;;;;;23.67;100.00;100858.66;5008951;28;20058;-79
2022/08/31 00:23:58;;;;;;;37.13;34.75;;;;;;;23.58;100.00;100857.69;5009766;28;20050;-78
2022/08/31 00:26:26;;;;;;;39.28;36.67;;;;;;;23.31;100.00;100857.16;5018314;28;20065;-78
2022/08/31 00:28:54;;;;;;;36.65;33.95;;;;;;;23.17;100.00;100856.22;5015826;28;20501;-78
2022/08/31 00:31:21;;;;;;;38.70;34.90;;;;;;;22.96;100.00;100865.66;5007843;28;20053;-80
2022/08/31 00:33:51;;;;;;;40.67;37.55;;;;;;;22.88;100.00;100863.56;5025246;28;20049;-81
2022/08/31 00:36:20;;;;;;;36.92;34.33;;;;;;;22.36;100.00;100861.25;5022275;28;20049;-78
2022/08/31 00:38:49;;;;;;;36.92;34.00;;;;;;;22.12;100.00;100860.28;5005928;28;20046;-77
2022/08/31 00:41:18;;;;;;;40.63;37.83;;;;;;;21.86;100.00;100856.91;5015391;28;20068;-79
2022/08/31 00:43:47;;;;;;;40.53;37.63;;;;;;;21.46;100.00;100864.91;5003502;28;20483;-80
2022/08/31 00:46:17;;;;;;;40.97;38.20;;;;;;;21.93;100.00;100863.59;5017275;28;20050;-83
2022/08/31 00:48:58;;;;;;;37.65;34.83;;;;;;;22.29;100.00;100858.03;5023355;28;20474;-80
2022/08/31 00:51:26;;;;;;;42.25;39.72;;;;;;;22.32;100.00;100854.75;5021525;28;20054;-80
2022/08/31 00:53:54;;;;;;;46.92;43.70;;;;;;;22.52;100.00;100866.53;5007870;28;20115;-80
2022/08/31 00:56:23;;;;;;;40.75;37.90;;;;;;;22.38;100.00;100860.94;5019281;28;20053;-80
2022/08/31 00:58:51;;;;;;;40.42;37.47;;;;;;;22.70;100.00;100865.84;5021914;28;20041;-77
2022/08/31 01:01:19;;;;;;;40.30;37.45;;;;;;;22.38;100.00;100864.44;5005603;28;20046;-78
2022/08/31 01:03:47;;;;;;;41.75;38.63;;;;;;;22.54;100.00;100867.88;5023281;28;20057;-78
2022/08/31 01:06:15;;;;;;;41.10;38.03;;;;;;;22.15;100.00;100874.06;5007330;28;20054;-80
2022/08/31 01:08:43;;;;;;;37.65;35.15;;;;;;;21.83;100.00;100879.88;5006198;28;20104;-77
2022/08/31 01:11:13;;;;;;;44.95;41.78;;;;;;;21.94;100.00;100886.06;5015530;28;20061;-81
2022/08/31 01:13:40;;;;;;;39.15;36.35;;;;;;;21.68;100.00;100882.66;5011926;28;20050;-77
2022/08/31 01:16:12;;;;;;;39.35;36.55;;;;;;;21.98;100.00;100883.63;5009644;28;20466;-80
2022/08/31 01:18:42;;;;;;;39.28;35.60;;;;;;;22.22;100.00;100887.28;5023230;28;20077;-78
2022/08/31 01:21:22;;;;;;;38.13;35.40;;;;;;;22.11;100.00;100893.81;5012840;28;20054;-83
2022/08/31 01:23:53;;;;;;;44.38;40.92;;;;;;;22.30;100.00;100899.41;5011188;28;20125;-78
2022/08/31 01:26:24;;;;;;;41.67;38.45;;;;;;;22.45;100.00;100893.09;5022835;28;20072;-78
2022/08/31 01:28:56;;;;;;;41.25;38.63;;;;;;;22.26;100.00;100896.47;5012344;28;20533;-77
2022/08/31 01:31:25;;;;;;;36.83;34.13;;;;;;;22.33;100.00;100896.16;5008401;28;20064;-81
2022/08/31 01:33:53;;;;;;;51.67;48.33;;;;;;;22.32;100.00;100894.53;5025152;28;20060;-78
2022/08/31 01:36:21;;;;;;;38.95;35.85;;;;;;;22.00;100.00;100898.47;5022928;28;20049;-79
2022/08/31 01:38:48;;;;;;;39.70;36.40;;;;;;;21.79;100.00;100903.16;5020957;28;20058;-78
2022/08/31 01:41:17;;;;;;;40.90;38.03;;;;;;;21.76;100.00;100911.03;5014513;28;20045;-79
2022/08/31 01:43:44;;;;;;;39.50;36.70;;;;;;;21.14;100.00;100908.41;5020687;28;20379;-81
2022/08/31 01:46:12;;;;;;;44.08;40.55;;;;;;;21.35;100.00;100906.50;5017754;28;20483;-80
2022/08/31 01:48:41;;;;;;;43.70;40.60;;;;;;;21.52;100.00;100910.81;5023747;28;20046;-77
2022/08/31 01:51:09;;;;;;;48.20;44.70;;;;;;;21.60;100.00;100916.44;5006819;28;20050;-77
2022/08/31 01:53:36;;;;;;;46.95;43.78;;;;;;;21.63;100.00;100923.19;5026876;28;20045;-77
2022/08/31 01:56:04;;;;;;;47.08;43.88;;;;;;;21.57;100.00;100916.19;5017027;28;20056;-79
2022/08/31 01:58:32;;;;;;;45.42;42.42;;;;;;;21.38;100.00;100926.78;5006869;28;20045;-78
2022/08/31 02:01:01;;;;;;;42.97;39.42;;;;;;;21.20;100.00;100926.22;5150136;23;20432;-77
2022/08/31 02:03:31;;;;;;;40.47;37.47;;;;;;;21.17;100.00;100915.97;5025338;28;20053;-80
2022/08/31 02:06:01;;;;;;;49.28;45.58;;;;;;;20.71;100.00;100913.28;5033739;28;20118;-77
2022/08/31 02:08:41;;;;;;;46.88;43.65;;;;;;;21.00;100.00;100918.97;5033543;28;20045;-80
2022/08/31 02:11:08;;;;;;;48.38;44.78;;;;;;;20.56;100.00;100911.38;5035094;28;20061;-79
2022/08/31 02:13:38;;;;;;;48.38;45.00;;;;;;;20.55;100.00;100915.16;5027271;28;20057;-77
2022/08/31 02:16:08;;;;;;;49.47;45.60;;;;;;;20.44;100.00;100913.47;5031460;28;20053;-79
2022/08/31 02:18:38;;;;;;;48.03;44.42;;;;;;;20.62;100.00;100912.19;5046621;28;20168;-80
2022/08/31 02:21:12;;;;;;;45.65;41.88;;;;;;;20.45;100.00;100931.28;5030639;28;20050;-80
2022/08/31 02:23:51;;;;;;;46.03;42.33;;;;;;;19.81;100.00;100929.69;5030858;28;20057;-77
2022/08/31 02:26:30;;;;;;;;;;;;;;;;;;;;;
2022/08/31 02:29:01;;;;;;;44.63;41.05;;;;;;;20.74;100.00;100930.81;5029426;28;20059;-79
2022/08/31 02:31:33;;;;;;;47.80;44.08;;;;;;;20.96;100.00;100928.66;5033976;28;20422;-79
2022/08/31 02:34:01;;;;;;;44.85;41.60;;;;;;;21.01;100.00;100933.28;5029233;28;20506;-79
2022/08/31 02:36:34;;;;;;;43.92;40.83;;;;;;;20.96;100.00;100935.97;5030304;28;20042;-77
2022/08/31 02:39:03;;;;;;;44.38;41.25;;;;;;;20.96;100.00;100938.66;5036470;28;20059;-79
2022/08/31 02:41:34;;;;;;;47.95;44.08;;;;;;;20.97;100.00;100934.91;5031526;28;20053;-77
2022/08/31 02:44:15;;;;;;;47.10;43.45;;;;;;;20.29;100.00;100943.91;5033024;28;20060;-76
2022/08/31 02:46:44;;;;;;;54.70;51.00;;;;;;;20.06;100.00;100939.81;5032659;28;20049;-80
2022/08/31 02:49:21;;;;;;;46.78;43.35;;;;;;;20.35;100.00;100933.94;5042846;28;20064;-77
2022/08/31 02:51:53;;;;;;;46.20;42.35;;;;;;;20.42;100.00;100939.09;5030378;28;20061;-77
2022/08/31 02:54:21;;;;;;;;;;;;;;;20.84;100.00;100943.50;5039548;28;20049;-80
2022/08/31 02:56:50;;;;;;;46.50;43.30;;;;;;;20.68;100.00;100945.38;5034147;28;20012;-76
2022/08/31 02:59:25;;;;;;;51.83;48.08;;;;;;;20.77;100.00;100935.69;5037647;28;20398;-78
2022/08/31 03:01:52;;;;;;;48.80;45.30;;;;;;;20.50;100.00;100941.28;5029734;28;20053;-83
2022/08/31 03:04:19;;;;;;;47.83;44.53;;;;;;;19.78;100.00;100957.16;5032203;28;20045;-78
2022/08/31 03:06:46;;;;;;;47.85;43.88;;;;;;;20.16;100.00;100943.63;5031534;28;20049;-78
2022/08/31 03:09:14;;;;;;;44.95;41.35;;;;;;;19.97;100.00;100944.09;5026839;28;20073;-80
2022/08/31 03:11:41;;;;;;;50.97;46.85;;;;;;;20.22;100.00;100939.84;5036289;28;20068;-80
2022/08/31 03:14:08;;;;;;;48.25;44.45;;;;;;;20.32;100.00;100947.97;5035513;28;20040;-78
2022/08/31 03:16:38;;;;;;;48.50;44.70;;;;;;;20.25;100.00;100942.03;5038266;28;20072;-79
2022/08/31 03:19:05;;;;;;;47.72;44.40;;;;;;;20.37;100.00;100950.69;5040633;28;20075;-78
2022/08/31 03:21:32;;;;;;;43.05;39.72;;;;;;;20.34;100.00;100940.44;5032777;28;20049;-81
2022/08/31 03:23:59;;;;;;;47.90;43.88;;;;;;;20.35;100.00;100942.03;5038050;28;20112;-80
2022/08/31 03:26:26;;;;;;;46.00;42.30;;;;;;;20.22;100.00;100943.34;5028428;28;20472;-80
2022/08/31 03:28:54;;;;;;;43.13;39.40;;;;;;;19.24;100.00;100941.16;5027166;28;20057;-78
2022/08/31 03:31:23;;;;;;;47.78;43.85;;;;;;;19.22;100.00;100940.63;5024671;28;20041;-78
2022/08/31 03:33:51;;;;;;;40.28;36.88;;;;;;;19.35;100.00;100939.38;5031295;28;20053;-80
2022/08/31 03:36:19;;;;;;;42.22;38.90;;;;;;;20.74;100.00;100930.81;5031889;28;20057;-79
2022/08/31 03:38:46;;;;;;;43.55;39.85;;;;;;;19.91;100.00;100931.66;5030846;28;20049;-78
2022/08/31 03:41:23;;;;;;;43.40;40.03;;;;;;;19.61;100.00;100941.16;5030519;28;20421;-78
2022/08/31 03:43:50;;;;;;;40.92;37.40;;;;;;;19.71;100.00;100945.03;5035740;28;20049;-78
2022/08/31 03:46:17;;;;;;;42.85;38.83;;;;;;;19.98;100.00;100948.38;5040746;28;20059;-78
2022/08/31 03:48:46;;;;;;;44.97;41.08;;;;;;;20.06;100.00;100931.72;5036874;28;20049;-79
2022/08/31 03:51:14;;;;;;;41.53;38.08;;;;;;;20.13;100.00;100944.94;5035195;28;20049;-77
2022/08/31 03:53:42;;;;;;;45.85;41.95;;;;;;;20.04;100.00;100944.63;5036559;28;20080;-79
2022/08/31 03:56:09;;;;;;;43.28;39.65;;;;;;;19.81;100.00;100953.94;5036235;28;20056;-78
2022/08/31 03:58:36;;;;;;;47.72;43.95;;;;;;;19.43;100.00;100957.75;5036762;28;20056;-81
2022/08/31 04:01:04;;;;;;;44.42;40.92;;;;;;;19.31;100.00;100951.75;5036939;28;20052;-79
2022/08/31 04:03:31;;;;;;;42.22;38.88;;;;;;;19.44;100.00;100959.38;5028441;28;20076;-79
2022/08/31 04:05:58;;;;;;;42.38;38.90;;;;;;;19.81;100.00;100953.94;5023640;28;20056;-78
2022/08/31 04:08:26;;;;;;;40.25;36.83;;;;;;;20.31;100.00;100955.25;5045850;28;20390;-77
2022/08/31 04:10:54;;;;;;;42.55;38.78;;;;;;;20.30;100.00;100948.25;5036915;28;20057;-78
2022/08/31 04:13:22;;;;;;;40.75;37.35;;;;;;;20.47;100.00;100949.91;5031269;28;20486;-79
2022/08/31 04:15:49;;;;;;;42.00;38.58;;;;;;;20.62;100.00;100941.88;5028940;28;20141;-80
2022/08/31 04:18:16;;;;;;;40.53;37.28;;;;;;;20.35;100.00;100942.84;5027865;28;20049;-83
2022/08/31 04:20:42;;;;;;;38.65;35.15;;;;;;;20.66;100.00;100937.53;5034592;28;20050;-78
2022/08/31 04:23:09;;;;;;;40.60;37.00;;;;;;;20.88;100.00;100941.88;5027381;28;20049;-80
2022/08/31 04:25:42;;;;;;;40.40;37.03;;;;;;;20.67;100.00;100944.59;5034450;28;20060;-78
2022/08/31 04:28:09;;;;;;;40.97;37.65;;;;;;;20.81;100.00;100950.25;5038574;28;20474;-81
2022/08/31 04:30:39;;;;;;;39.10;35.88;;;;;;;20.78;100.00;100940.00;5040334;28;20415;-82
2022/08/31 04:33:05;;;;;;;37.00;33.70;;;;;;;19.80;100.00;100954.22;5023006;28;20128;-78
2022/08/31 04:35:34;;;;;;;38.72;35.20;;;;;;;20.04;100.00;100955.41;5039813;28;20509;-81
2022/08/31 04:38:01;;;;;;;40.83;37.35;;;;;;;19.91;100.00;100964.00;5037779;28;20057;-80
2022/08/31 04:40:28;;;;;;;40.90;37.25;;;;;;;20.49;100.00;100959.34;5036304;28;20052;-82
2022/08/31 04:42:56;;;;;;;41.92;38.53;;;;;;;20.75;100.00;100951.31;5029884;28;20072;-78
2022/08/31 04:45:23;;;;;;;41.72;38.05;;;;;;;20.78;100.00;100951.59;5040904;28;20398;-79
2022/08/31 04:47:50;;;;;;;40.13;36.35;;;;;;;21.03;100.00;100952.72;5026127;28;20077;-80
2022/08/31 04:50:17;;;;;;;40.78;37.05;;;;;;;21.10;100.00;100947.03;5031358;28;20049;-81
2022/08/31 04:52:47;;;;;;;38.05;34.60;;;;;;;21.03;100.00;100939.22;5037119;28;20457;-82
2022/08/31 04:55:14;;;;;;;39.35;36.17;;;;;;;21.11;100.00;100946.75;5031346;28;20045;-78
2022/08/31 04:57:41;;;;;;;37.03;33.63;;;;;;;21.19;100.00;100943.53;5035339;28;20409;-80
2022/08/31 05:00:10;;;;;;;39.13;35.80;;;;;;;21.64;100.00;100928.34;5047386;28;20046;-79
2022/08/31 05:02:37;;;;;;;43.42;39.63;;;;;;;21.84;100.00;100935.56;5025241;28;20060;-82
2022/08/31 05:05:05;;;;;;;44.95;40.28;;;;;;;21.66;100.00;100933.47;5030495;28;20064;-81
2022/08/31 05:07:32;;;;;;;45.17;41.05;;;;;;;21.71;100.00;100930.75;5037519;28;20060;-83
2022/08/31 05:09:58;;;;;;;45.83;41.63;;;;;;;21.70;100.00;100929.94;5040986;28;20049;-82
2022/08/31 05:12:25;;;;;;;42.95;39.65;;;;;;;21.83;100.00;100930.44;5038288;28;20048;-79
2022/08/31 05:14:52;;;;;;;41.17;37.58;;;;;;;21.86;100.00;100932.59;5044961;28;20454;-81
2022/08/31 05:17:20;;;;;;;39.45;35.63;;;;;;;21.94;100.00;100940.16;5029767;28;20049;-81
2022/08/31 05:19:47;;;;;;;39.97;36.78;;;;;;;21.91;100.00;100935.28;5028913;28;20445;-79
2022/08/31 05:22:14;;;;;;;47.90;44.78;;;;;;;22.06;100.00;100937.09;5021635;28;20050;-82
2022/08/31 05:24:41;;;;;;;42.40;38.90;;;;;;;22.26;100.00;100944.34;5023205;28;20115;-82
2022/08/31 05:27:08;;;;;;;46.30;42.50;;;;;;;22.33;100.00;100939.44;5026113;28;20049;-81
2022/08/31 05:29:35;;;;;;;46.85;42.75;;;;;;;22.45;100.00;100939.94;5043054;28;20045;-81
2022/08/31 05:32:02;;;;;;;45.30;42.03;;;;;;;22.50;100.00;100939.88;5024394;28;20053;-78
2022/08/31 05:34:30;;;;;;;50.10;46.38;;;;;;;22.68;100.00;100933.00;5036750;28;20053;-81
2022/08/31 05:36:57;;;;;;;45.33;41.70;;;;;;;23.09;100.00;100935.44;5035393;28;20050;-78
2022/08/31 05:39:25;;;;;;;42.15;38.35;;;;;;;23.06;100.00;100942.22;5035169;28;20053;-82
2022/08/31 05:41:52;;;;;;;42.67;39.38;;;;;;;23.46;100.00;100936.69;5039253;28;20045;-81
2022/08/31 05:44:19;;;;;;;42.22;38.92;;;;;;;23.72;100.00;100923.69;5040108;28;20050;-79
2022/08/31 05:46:47;;;;;;;41.13;38.28;;;;;;;23.64;100.00;100927.81;5035254;28;20053;-77
2022/08/31 05:49:13;;;;;;;39.58;36.58;;;;;;;23.92;100.00;100931.59;5035312;28;20056;-80
2022/08/31 05:51:42;;;;;;;38.95;36.15;;;;;;;24.14;100.00;100932.94;5043050;28;20118;-78
2022/08/31 05:54:09;;;;;;;37.17;34.20;;;;;;;23.91;100.00;100935.41;5038667;28;20462;-78
2022/08/31 05:56:37;;;;;;;33.60;31.02;;;;;;;25.04;100.00;100931.09;5029072;28;20118;-82
2022/08/31 05:59:04;;;;;;;36.05;33.25;;;;;;;24.47;100.00;100933.88;5040758;28;20405;-79
2022/08/31 06:01:32;;;;;;;37.40;34.55;;;;;;;24.66;100.00;100934.69;5037762;28;20041;-81
2022/08/31 06:04:00;;;;;;;42.60;36.90;;;;;;;24.49;100.00;100931.69;5042723;28;20149;-77
2022/08/31 06:06:28;;;;;;;46.72;43.20;;;;;;;24.36;100.00;100929.69;5034487;28;20065;-76
2022/08/31 06:08:57;;;;;;;36.92;33.67;;;;;;;24.75;100.00;100942.13;5039252;28;20056;-79
2022/08/31 06:11:26;;;;;;;37.05;34.30;;;;;;;24.60;100.00;100938.59;5026631;28;20123;-77
2022/08/31 06:13:55;;;;;;;34.95;32.20;;;;;;;25.06;100.00;100940.56;5028939;28;20049;-81
2022/08/31 06:16:22;;;;;;;35.15;31.60;;;;;;;25.28;100.00;100939.13;5028512;28;20401;-80
2022/08/31 06:18:50;;;;;;;38.13;34.70;;;;;;;25.02;100.00;100938.72;5036375;28;20053;-84
2022/08/31 06:21:19;;;;;;;34.45;31.88;;;;;;;26.19;100.00;100939.25;5036111;28;20051;-81
2022/08/31 06:23:48;;;;;;;39.30;36.25;;;;;;;25.69;100.00;100943.78;5023604;28;20049;-77
2022/08/31 06:26:19;;;;;;;34.33;31.27;;;;;;;26.31;100.00;100946.88;5026178;28;20073;-77
2022/08/31 06:28:49;;;;;;;34.53;31.92;;;;;;;25.88;100.00;100952.69;5036922;28;20045;-81
2022/08/31 06:31:20;;;;;;;33.78;31.17;;;;;;;25.59;100.00;100942.88;5034663;28;20054;-77
2022/08/31 06:33:48;;;;;;;37.33;34.13;;;;;;;25.58;100.00;100952.16;5037565;28;20049;-79
2022/08/31 06:36:18;;;;;;;36.15;33.05;;;;;;;25.83;100.00;100952.78;5031988;28;20885;-78
2022/08/31 06:38:45;;;;;;;36.10;33.50;;;;;;;25.92;100.00;100956.41;5035512;28;20049;-78
2022/08/31 06:41:14;;;;;;;38.08;34.80;;;;;;;26.18;100.00;100959.41;5034335;28;20041;-77
2022/08/31 06:43:44;;;;;;;35.88;33.25;;;;;;;26.49;100.00;100962.28;5033399;28;20473;-81
2022/08/31 06:46:12;;;;;;;37.70;34.72;;;;;;;26.83;100.00;100958.22;5033553;28;20103;-76
2022/08/31 06:48:40;;;;;;;38.22;35.47;;;;;;;26.74;100.00;100960.09;5037347;28;20119;-80
2022/08/31 06:51:19;;;;;;;37.60;34.80;;;;;;;26.41;100.00;100967.63;5033717;28;20053;-78
2022/08/31 06:53:46;;;;;;;35.35;32.72;;;;;;;26.65;100.00;100962.75;5031594;28;20477;-82
2022/08/31 06:56:21;;;;;;;33.38;30.58;;;;;;;27.06;100.00;100955.53;5038437;28;20052;-79
2022/08/31 06:58:51;;;;;;;33.40;30.38;;;;;;;27.15;100.00;100959.94;5037431;28;20053;-81
2022/08/31 07:01:20;;;;;;;32.80;30.23;;;;;;;26.62;100.00;100966.09;5033291;28;20552;-77
2022/08/31 07:04:04;;;;;;;33.80;31.05;;;;;;;27.01;100.00;100961.09;5032885;28;20129;-79
2022/08/31 07:06:34;;;;;;;31.92;29.35;;;;;;;27.16;100.00;100958.81;5036984;28;20122;-83
2022/08/31 07:09:05;;;;;;;31.08;28.58;;;;;;;27.29;100.00;100954.38;5043640;28;20418;-77
2022/08/31 07:11:35;;;;;;;31.58;29.00;;;;;;;27.50;100.00;100959.31;5037350;28;20061;-81
2022/08/31 07:14:05;;;;;;;34.47;31.40;;;;;;;27.62;100.00;100957.59;5030652;28;20041;-77
2022/08/31 07:16:32;;;;;;;35.20;32.10;;;;;;;26.97;100.00;100955.47;5037606;28;20057;-77
2022/08/31 07:19:02;;;;;;;35.65;32.65;;;;;;;27.66;100.00;100962.41;5038701;28;20051;-79
2022/08/31 07:21:31;;;;;;;34.88;31.58;;;;;;;27.62;100.00;100965.75;5033234;28;20041;-81
2022/08/31 07:24:00;;;;;;;34.55;31.55;;;;;;;27.47;100.00;100966.19;5041229;28;20481;-77
2022/08/31 07:26:29;;;;;;;34.17;31.00;;;;;;;27.79;100.00;100964.28;5034947;28;20106;-78
2022/08/31 07:28:58;;;;;;;37.30;33.55;;;;;;;27.91;100.00;100964.47;5030614;28;20042;-77
2022/08/31 07:31:36;;;;;;;32.83;30.23;;;;;;;28.04;100.00;100963.53;5036801;28;20056;-81
2022/08/31 07:34:05;;;;;;;32.10;29.02;;;;;;;28.70;100.00;100960.72;5034244;28;20143;-79
2022/08/31 07:36:32;;;;;;;34.95;31.55;;;;;;;28.59;100.00;100956.72;5029390;28;20053;-80
2022/08/31 07:44:31;;;;;;;35.08;32.05;;;;;;;28.73;100.00;100946.41;5021495;28;20599;-82
2022/08/31 07:47:03;;;;;;;34.75;31.95;;;;;;;28.91;100.00;100947.22;5036611;28;20041;-81
2022/08/31 07:49:35;;;;;;;32.80;30.10;;;;;;;28.79;100.00;100954.47;5045025;28;20045;-79
2022/08/31 07:52:05;;;;;;;33.88;30.83;;;;;;;28.89;100.00;100943.19;5025170;28;20466;-80
2022/08/31 07:54:33;;;;;;;35.30;32.50;;;;;;;29.01;100.00;100948.78;5038442;28;20053;-81
2022/08/31 07:57:05;;;;;;;33.80;31.33;;;;;;;29.07;100.00;100952.19;5035219;28;20063;-80
2022/08/31 07:59:36;;;;;;;34.38;31.55;;;;;;;29.38;100.00;100949.19;5032325;28;20049;-79
2022/08/31 08:02:13;;;;;;;35.92;32.47;;;;;;;29.45;100.00;100941.31;5029767;28;20053;-83
2022/08/31 08:04:42;;;;;;;35.38;32.20;;;;;;;29.39;100.00;100940.69;5043858;28;20064;-77
2022/08/31 08:07:11;;;;;;;35.63;32.40;;;;;;;29.74;100.00;100939.75;5029455;28;20075;-77
2022/08/31 08:09:39;;;;;;;36.83;33.92;;;;;;;29.30;100.00;100947.31;5047424;28;20596;-78
2022/08/31 08:12:07;;;;;;;35.78;32.72;;;;;;;29.76;100.00;100945.69;5037515;28;20057;-76
2022/08/31 08:14:43;;;;;;;35.65;32.42;;;;;;;29.75;100.00;100941.38;5038240;28;20061;-77
2022/08/31 08:17:14;;;;;;;32.55;29.67;;;;;;;30.04;100.00;100938.59;5037413;28;20061;-77
2022/08/31 08:19:42;;;;;;;35.10;32.50;;;;;;;29.57;100.00;100937.88;5030759;28;20049;-77
2022/08/31 08:22:11;;;;;;;36.08;32.75;;;;;;;30.20;100.00;100935.25;5035469;28;20048;-81
2022/08/31 08:24:41;;;;;;;36.78;33.70;;;;;;;30.60;100.00;100935.63;5044994;28;20064;-76
2022/08/31 08:27:10;;;;;;;35.38;32.38;;;;;;;30.10;100.00;100937.25;5027502;28;20541;-77
2022/08/31 08:29:38;;;;;;;35.72;32.65;;;;;;;30.17;100.00;100939.50;5037431;28;20049;-81
2022/08/31 08:32:07;;;;;;;36.08;32.63;;;;;;;30.91;100.00;100931.66;5031353;28;20076;-80
2022/08/31 08:34:42;;;;;;;34.03;31.15;;;;;;;30.72;100.00;100938.41;5032961;28;20060;-79
2022/08/31 08:37:13;;;;;;;35.67;32.65;;;;;;;30.31;100.00;100922.81;5032418;28;20496;-79
2022/08/31 08:39:49;;;;;;;35.40;32.05;;;;;;;30.17;100.00;100930.44;5041143;28;20060;-79
2022/08/31 08:42:19;;;;;;;33.55;30.20;;;;;;;30.98;100.00;100923.66;5027407;28;20045;-79
2022/08/31 08:44:48;;;;;;;34.78;31.55;;;;;;;30.54;100.00;100926.81;5037099;28;20049;-80
2022/08/31 08:47:21;;;;;;;33.13;30.17;;;;;;;30.92;100.00;100914.84;5034511;28;20375;-76
2022/08/31 08:50:02;;;;;;;34.78;31.80;;;;;;;31.08;100.00;100911.47;5030053;28;20042;-77
2022/08/31 08:52:37;;;;;;;33.53;30.60;;;;;;;31.76;94.62;100898.00;5025737;28;20058;-77
2022/08/31 08:55:10;;;;;;;32.65;30.15;;;;;;;32.00;91.09;100907.41;5030508;28;20132;-78
2022/08/31 08:57:43;;;;;;;34.25;31.48;;;;;;;30.53;94.82;100913.44;5030997;28;20069;-81
2022/08/31 09:00:18;;;;;;;34.10;31.20;;;;;;;31.02;91.42;100900.72;5034736;28;20053;-77
2022/08/31 09:02:57;;;;;;;34.45;31.27;;;;;;;31.88;86.53;100894.47;5025884;28;20375;-80
2022/08/31 09:05:54;;;;;;;32.58;29.35;;;;;;;31.47;88.57;100890.84;5039407;28;20038;-79
2022/08/31 09:08:40;;;;;;;32.30;29.05;;;;;;;31.46;89.09;100892.78;5028280;28;20053;-80
2022/08/31 09:11:17;;;;;;;32.83;29.73;;;;;;;32.22;76.62;100895.09;5022811;28;20064;-76
2022/08/31 09:14:03;;;;;;;33.15;30.05;;;;;;;31.68;82.68;100896.19;5023671;28;20112;-77
2022/08/31 09:16:50;;;;;;;30.73;27.90;;;;;;;31.35;89.55;100891.66;5031631;28;20057;-77
2022/08/31 09:19:20;;;;;;;30.90;28.30;;;;;;;30.47;84.75;100888.19;5030878;28;20478;-79
2022/08/31 09:22:00;;;;;;;34.65;31.15;;;;;;;31.67;81.56;100886.38;5032509;28;20050;-79
2022/08/31 09:24:29;;;;;;;33.22;29.75;;;;;;;32.02;81.18;100875.69;5030401;28;20041;-77
2022/08/31 09:27:16;;;;;;;32.95;30.15;;;;;;;32.14;85.64;100883.09;5026527;28;20164;-78
2022/08/31 09:29:48;;;;;;;33.42;30.02;;;;;;;32.57;76.69;100881.59;5029671;28;20056;-80
2022/08/31 09:32:21;;;;;;;32.85;28.15;;;;;;;32.54;76.01;100887.78;5025092;28;20057;-79
2022/08/31 09:34:57;;;;;;;34.13;30.92;;;;;;;32.73;67.03;100892.59;5036638;28;20046;-77
2022/08/31 09:37:32;;;;;;;37.80;33.90;;;;;;;32.45;65.01;100898.13;5030274;28;20474;-79
2022/08/31 09:40:19;;;;;;;36.63;33.22;;;;;;;32.59;67.53;100902.06;5033129;28;20530;-77
2022/08/31 09:43:01;;;;;;;37.95;34.20;;;;;;;33.33;65.01;100898.09;5030559;28;20253;-80
2022/08/31 09:45:34;;;;;;;37.05;33.30;;;;;;;33.21;62.54;100883.25;5029743;28;20037;-77
2022/08/31 09:48:03;;;;;;;39.47;36.13;;;;;;;32.08;67.81;100887.25;5030240;28;20127;-80
2022/08/31 09:50:34;;;;;;;35.72;32.63;;;;;;;32.66;65.38;100882.22;5036937;28;20521;-79
2022/08/31 09:56:19;;;;;;;35.35;32.08;;;;;;;33.75;65.62;100881.78;5028646;28;20044;-77
2022/08/31 09:58:50;;;;;;;34.35;31.20;;;;;;;33.50;60.41;100873.78;5032160;28;20072;-78
2022/08/31 10:01:21;;;;;;;37.28;34.03;;;;;;;34.21;58.92;100882.00;5027466;28;20572;-79
2022/08/31 10:03:52;;;;;;;43.87;39.90;;;;;;;34.72;58.09;100875.53;5027154;28;20056;-80
2022/08/31 10:06:44;;;;;;;40.60;36.35;;;;;;;33.65;53.73;100866.63;5022623;28;20064;-80
2022/08/31 10:09:43;;;;;;;38.80;35.37;;;;;;;33.55;53.64;100864.41;5025941;28;20450;-81
2022/08/31 10:12:17;;;;;;;39.28;35.80;;;;;;;33.32;54.11;100858.75;5029835;28;20295;-77
2022/08/31 10:14:54;;;;;;;39.00;35.55;;;;;;;32.88;53.45;100853.31;5031982;28;20493;-81
2022/08/31 10:17:30;;;;;;;44.80;40.55;;;;;;;33.22;54.94;100856.53;5028870;28;20156;-80
2022/08/31 10:20:05;;;;;;;39.33;35.13;;;;;;;34.13;53.27;100848.00;5026555;28;20056;-80
2022/08/31 10:22:40;;;;;;;40.08;36.70;;;;;;;33.64;50.59;100847.72;5028515;28;20057;-77
2022/08/31 10:25:20;;;;;;;42.05;38.30;;;;;;;34.68;48.52;100844.31;5025787;28;20513;-80
2022/08/31 10:27:54;;;;;;;40.00;33.72;;;;;;;35.17;48.24;100835.31;5022496;28;20059;-78
2022/08/31 10:30:58;;;;;;;36.58;33.33;;;;;;;34.52;49.95;100834.16;5024538;28;20451;-78
2022/08/31 10:35:01;;;;;;;39.42;35.63;;;;;;;34.52;49.94;100825.88;5020034;28;20061;-80
2022/08/31 10:36:19;;;;;;;37.75;34.28;;;;;;;35.32;49.91;100806.75;5022257;28;20180;-80
2022/08/31 10:38:49;;;;;;;37.30;33.60;;;;;;;34.81;48.53;100820.91;5026252;28;20057;-80
2022/08/31 10:41:26;;;;;;;33.35;29.77;;;;;;;35.01;52.69;100816.91;5029481;28;20164;-79
2022/08/31 10:44:01;;;;;;;37.95;34.92;;;;;;;34.91;50.72;100817.53;5037728;28;20080;-77
2022/08/31 10:46:29;;;;;;;38.88;35.47;;;;;;;35.65;48.41;100802.50;5028266;28;20095;-80
2022/08/31 10:49:03;;;;;;;35.15;31.83;;;;;;;35.47;48.94;100799.47;5033089;28;20046;-77
2022/08/31 10:51:41;;;;;;;37.47;33.78;;;;;;;34.67;47.21;100796.63;5035128;28;20061;-76
2022/08/31 10:54:27;;;;;;;37.55;33.90;;;;;;;34.47;51.37;100792.34;5039333;28;20486;-78
2022/08/31 10:57:04;;;;;;;38.58;35.20;;;;;;;35.15;48.79;100793.50;5043252;28;20069;-81
2022/08/31 10:59:37;;;;;;;36.80;32.85;;;;;;;35.16;46.41;100784.03;5033345;28;21814;-77
2022/08/31 11:02:30;;;;;;;35.90;32.50;;;;;;;34.26;51.38;100801.00;5028870;28;20046;-77
2022/08/31 11:05:09;;;;;;;36.20;32.70;;;;;;;34.29;50.39;100792.81;5031550;28;20049;-79
2022/08/31 11:07:53;;;;;;;34.05;30.77;;;;;;;35.51;49.28;100781.00;5031466;28;20045;-81
2022/08/31 11:10:35;;;;;;;34.15;31.13;;;;;;;34.92;47.08;100766.72;5028883;28;20405;-79
2022/08/31 11:13:13;;;;;;;31.80;28.88;;;;;;;34.98;48.10;100764.41;5022324;28;20056;-82
2022/08/31 11:16:09;;;;;;;34.00;30.45;;;;;;;35.45;45.80;100761.19;5027112;28;20084;-76
2022/08/31 11:19:12;;;;;;;37.75;34.28;;;;;;;34.87;49.89;100758.75;5030204;28;20071;-80
2022/08/31 11:22:35;;;;;;;36.55;30.63;;;;;;;35.36;47.10;100759.88;5032205;28;20054;-77
2022/08/31 11:25:23;;;;;;;34.78;31.25;;;;;;;35.32;47.10;100757.06;4966268;28;20134;-81
2022/08/31 11:27:55;;;;;;;32.30;29.10;;;;;;;36.77;44.42;100750.78;5032305;28;20099;-80
2022/08/31 11:30:31;;;;;;;32.78;29.50;;;;;;;36.18;42.84;100750.63;5033438;28;20061;-80
2022/08/31 11:33:01;;;;;;;31.33;28.50;;;;;;;36.83;43.47;100738.19;5028266;28;20135;-78
2022/08/31 11:36:04;;;;;;;40.13;31.15;;;;;;;35.86;43.78;100735.66;5023883;28;20045;-81